createdAt,value
2023-03-22T00:04:15.786Z,9.02
2023-03-22T00:09:17.391Z,9.02
2023-03-22T00:14:19.067Z,9.04
2023-03-22T00:19:20.559Z,9.04
2023-03-22T00:24:21.927Z,8.97
2023-03-22T00:34:36.386Z,8.91
2023-03-22T00:39:37.805Z,8.90
2023-03-22T00:44:39.211Z,8.91
2023-03-22T00:49:41.083Z,8.97
2023-03-22T00:54:42.440Z,8.98
2023-03-22T00:59:44.323Z,9.04
2023-03-22T01:04:46.467Z,9.25
2023-03-22T01:09:48.749Z,9.49
2023-03-22T01:14:50.150Z,9.69
2023-03-22T01:19:51.560Z,9.85
2023-03-22T01:30:07.146Z,10.11
2023-03-22T01:35:09.168Z,10.22
2023-03-22T01:40:12.872Z,10.30
2023-03-22T01:45:14.208Z,10.39
2023-03-22T01:50:17.197Z,10.44
2023-03-22T01:55:23.232Z,10.52
2023-03-22T02:00:24.807Z,10.58
2023-03-22T02:05:26.601Z,10.63
2023-03-22T02:10:28.533Z,10.67
2023-03-22T02:15:38.431Z,10.66
2023-03-22T02:21:02.436Z,10.64
2023-03-22T02:26:19.006Z,10.56
2023-03-22T02:32:09.761Z,10.50
2023-03-22T02:37:17.302Z,10.48
2023-03-22T02:42:36.009Z,10.44
2023-03-22T02:47:43.403Z,10.43
2023-03-22T02:52:50.148Z,10.42
2023-03-22T02:57:58.061Z,10.45
2023-03-22T03:03:11.552Z,10.38
2023-03-22T03:08:15.445Z,10.37
2023-03-22T03:13:18.837Z,10.36
2023-03-22T03:18:27.535Z,10.36
2023-03-22T03:24:00.374Z,10.27
2023-03-22T03:29:11.515Z,10.31
2023-03-22T03:34:21.974Z,10.25
2023-03-22T03:39:27.794Z,10.23
2023-03-22T03:44:31.457Z,10.11
2023-03-22T03:49:32.824Z,10.17
2023-03-22T03:54:34.282Z,10.18
2023-03-22T03:59:35.758Z,10.12
2023-03-22T04:04:37.162Z,9.93
2023-03-22T04:09:39.169Z,9.80
2023-03-22T04:14:41.601Z,9.77
2023-03-22T04:19:44.576Z,9.75
2023-03-22T04:24:50.105Z,9.56
2023-03-22T04:29:52.132Z,9.51
2023-03-22T04:34:53.582Z,9.50
2023-03-22T04:39:54.969Z,9.39
2023-03-22T04:44:56.349Z,9.31
2023-03-22T04:49:57.679Z,9.38
2023-03-22T04:54:59.054Z,9.38
2023-03-22T05:00:00.705Z,9.36
2023-03-22T05:05:02.043Z,9.27
2023-03-22T05:10:03.664Z,9.21
2023-03-22T05:15:06.567Z,9.15
2023-03-22T05:20:09.381Z,9.09
2023-03-22T05:25:11.534Z,9.01
2023-03-22T05:30:13.297Z,8.98
2023-03-22T05:35:14.713Z,8.95
2023-03-22T05:40:16.864Z,8.91
2023-03-22T05:45:18.758Z,8.85
2023-03-22T05:50:22.218Z,8.67
2023-03-22T05:55:23.783Z,8.62
2023-03-22T06:00:25.752Z,8.71
2023-03-22T06:05:27.328Z,8.81
2023-03-22T06:10:29.212Z,8.89
2023-03-22T06:15:30.917Z,8.96
2023-03-22T06:20:32.392Z,9.00
2023-03-22T06:25:34.130Z,9.13
2023-03-22T06:30:35.910Z,9.26
2023-03-22T06:35:37.363Z,9.42
2023-03-22T06:40:39.308Z,9.52
2023-03-22T06:45:40.879Z,9.72
2023-03-22T06:50:44.531Z,9.91
2023-03-22T06:55:46.077Z,10.07
2023-03-22T07:00:47.412Z,10.24
2023-03-22T07:05:48.802Z,10.46
2023-03-22T07:10:51.244Z,10.73
2023-03-22T07:16:01.097Z,10.89
2023-03-22T07:21:02.554Z,11.05
2023-03-22T07:26:04.000Z,11.22
2023-03-22T07:31:10.010Z,11.30
2023-03-22T07:36:11.805Z,11.41
2023-03-22T07:41:13.141Z,11.58
2023-03-22T07:46:14.513Z,11.81
2023-03-22T07:51:16.858Z,11.92
2023-03-22T07:56:18.247Z,11.98
2023-03-22T08:01:20.108Z,12.12
2023-03-22T08:06:21.636Z,12.47
2023-03-22T08:11:23.003Z,12.56
2023-03-22T08:16:24.401Z,12.66
2023-03-22T08:21:26.035Z,12.91
2023-03-22T08:26:27.694Z,13.08
2023-03-22T08:31:29.371Z,13.12
2023-03-22T08:36:31.025Z,13.17
2023-03-22T08:41:32.374Z,13.39
2023-03-22T08:46:33.806Z,13.53
2023-03-22T08:51:35.498Z,13.89
2023-03-22T08:56:38.114Z,14.09
2023-03-22T09:01:39.674Z,14.22
2023-03-22T09:06:44.121Z,14.34
2023-03-22T09:11:45.442Z,14.61
2023-03-22T09:16:47.747Z,14.83
2023-03-22T09:21:49.946Z,14.97
2023-03-22T09:26:51.534Z,15.06
2023-03-22T09:31:53.476Z,15.31
2023-03-22T09:36:56.740Z,15.54
2023-03-22T09:42:02.226Z,15.82
2023-03-22T09:47:05.403Z,16.12
2023-03-22T09:52:13.939Z,16.27
2023-03-22T09:57:18.206Z,16.22
2023-03-22T10:02:47.624Z,16.34
2023-03-22T10:08:13.896Z,16.44
2023-03-22T10:13:39.601Z,16.60
2023-03-22T10:18:47.036Z,16.41
2023-03-22T10:23:56.941Z,16.33
2023-03-22T10:29:12.342Z,16.26
2023-03-22T10:34:43.494Z,16.23
2023-03-22T10:39:49.703Z,16.30
2023-03-22T10:45:02.501Z,16.55
2023-03-22T10:50:11.487Z,16.50
2023-03-22T10:55:15.613Z,16.35
2023-03-22T11:00:17.481Z,16.38
2023-03-22T11:05:28.351Z,16.50
2023-03-22T11:10:34.376Z,16.66
2023-03-22T11:15:40.233Z,16.88
2023-03-22T11:20:54.062Z,17.09
2023-03-22T11:25:58.561Z,17.60
2023-03-22T11:31:12.535Z,18.01
2023-03-22T11:36:18.811Z,18.14
2023-03-22T11:41:23.933Z,18.10
2023-03-22T11:46:25.554Z,18.30
2023-03-22T11:51:32.488Z,18.71
2023-03-22T11:56:34.438Z,18.67
2023-03-22T12:01:42.089Z,18.77
2023-03-22T12:06:43.609Z,19.13
2023-03-22T12:11:48.842Z,19.25
2023-03-22T12:16:55.719Z,19.20
2023-03-22T12:21:58.063Z,19.38
2023-03-22T12:27:14.492Z,19.49
2023-03-22T12:32:21.990Z,19.54
2023-03-22T12:37:31.476Z,19.66
2023-03-22T12:42:59.700Z,19.68
2023-03-22T12:48:40.897Z,19.67
2023-03-22T12:53:52.307Z,19.73
2023-03-22T12:59:02.644Z,19.81
2023-03-22T13:04:52.044Z,19.85
2023-03-22T13:09:53.440Z,20.00
2023-03-22T13:15:41.160Z,20.22
2023-03-22T13:20:43.755Z,20.07
2023-03-22T13:26:04.137Z,20.12
2023-03-22T13:31:06.531Z,20.22
2023-03-22T13:36:22.961Z,20.38
2023-03-22T13:41:28.785Z,20.41
2023-03-22T13:46:36.297Z,20.48
2023-03-22T13:51:37.942Z,20.93
2023-03-22T13:56:42.246Z,20.80
2023-03-22T14:01:49.407Z,20.65
2023-03-22T14:07:07.648Z,20.60
2023-03-22T14:12:21.168Z,20.44
2023-03-22T14:17:56.070Z,20.37
